Time;durP1;ratioP1;P1;durP2;ratioP2;P2;SDS_P1;SDS_P2;PMS_P1;PMS_P2;Temp;Humidity;BMP_temperature;BMP_pressure;BME280_temperature;BME280_humidity;BME280_pressure;Samples;Min_cycle;Max_cycle;Signal;HPM_P1;HPM_P2
2023/10/11 00:01:12;;;;;;;9.80;5.40;;;;;;;;;;4969292;28;20118;-88
2023/10/11 00:03:52;;;;;;;11.25;5.03;;;;;;;;;;4972434;28;20131;-87
2023/10/11 00:06:20;;;;;;;15.55;5.95;;;;;;;;;;4972022;28;20141;-87
2023/10/11 00:08:50;;;;;;;15.13;5.78;;;;;;;;;;4969092;28;20084;-87
2023/10/11 00:11:24;;;;;;;16.42;5.95;;;;;;;;;;4970001;28;20059;-87
2023/10/11 00:13:53;;;;;;;15.40;5.95;;;;;;;;;;4972116;28;20050;-87
2023/10/11 00:16:21;;;;;;;15.27;5.85;;;;;;;;;;4957023;29;20058;-87
2023/10/11 00:18:51;;;;;;;12.18;5.68;;;;;;;;;;4971872;28;20047;-87
2023/10/11 00:21:19;;;;;;;9.57;5.47;;;;;;;;;;4971966;28;20051;-87
2023/10/11 00:23:50;;;;;;;14.18;6.03;;;;;;;;;;4972348;28;20055;-87
2023/10/11 00:26:18;;;;;;;9.38;5.13;;;;;;;;;;4969734;28;20098;-87
2023/10/11 00:28:46;;;;;;;13.43;5.28;;;;;;;;;;4957018;28;20062;-88
2023/10/11 00:31:17;;;;;;;14.80;5.40;;;;;;;;;;4956287;28;20086;-87
2023/10/11 00:33:46;;;;;;;12.25;5.50;;;;;;;;;;4956773;28;20094;-89
2023/10/11 00:36:15;;;;;;;11.48;5.90;;;;;;;;;;4956678;28;20106;-88
2023/10/11 00:38:46;;;;;;;14.68;5.70;;;;;;;;;;4971719;28;20131;-88
2023/10/11 00:41:17;;;;;;;14.70;5.35;;;;;;;;;;4971536;28;20081;-87
2023/10/11 00:43:52;;;;;;;13.30;5.57;;;;;;;;;;4971175;28;20114;-88
2023/10/11 00:46:22;;;;;;;15.25;6.20;;;;;;;;;;4971399;28;20087;-88
2023/10/11 00:51:30;;;;;;;17.00;5.72;;;;;;;;;;4954693;29;20055;-89
2023/10/11 00:53:59;;;;;;;10.82;5.43;;;;;;;;;;4971151;28;20047;-88
2023/10/11 00:56:31;;;;;;;12.93;5.45;;;;;;;;;;4971056;28;20086;-88
2023/10/11 00:59:10;;;;;;;14.43;5.85;;;;;;;;;;4971116;28;20381;-86
2023/10/11 01:01:38;;;;;;;12.85;5.47;;;;;;;;;;4959815;28;20048;-88
2023/10/11 01:04:13;;;;;;;11.98;5.28;;;;;;;;;;4967592;28;20057;-88
2023/10/11 01:06:41;;;;;;;13.25;5.88;;;;;;;;;;4956051;28;20078;-89
2023/10/11 01:09:18;;;;;;;8.13;5.03;;;;;;;;;;4971031;28;20059;-88
2023/10/11 01:11:46;;;;;;;16.42;6.05;;;;;;;;;;4970506;28;20133;-88
2023/10/11 01:14:14;;;;;;;14.63;5.60;;;;;;;;;;4968703;28;20048;-89
2023/10/11 01:16:42;;;;;;;15.02;5.75;;;;;;;;;;4948320;28;20488;-88
2023/10/11 01:19:16;;;;;;;10.57;5.50;;;;;;;;;;4970783;28;20461;-88
2023/10/11 01:21:51;;;;;;;10.25;5.30;;;;;;;;;;4970714;28;20043;-87
2023/10/11 01:24:19;;;;;;;11.27;5.28;;;;;;;;;;4955888;28;20138;-88
2023/10/11 01:26:46;;;;;;;12.68;5.05;;;;;;;;;;4955817;28;20043;-87
2023/10/11 01:29:14;;;;;;;14.52;5.18;;;;;;;;;;4955616;28;20058;-88
2023/10/11 01:31:41;;;;;;;15.15;5.55;;;;;;;;;;4955226;28;20489;-87
2023/10/11 01:34:14;;;;;;;14.15;5.75;;;;;;;;;;4955847;28;20057;-88
2023/10/11 01:36:42;;;;;;;20.08;5.47;;;;;;;;;;4955639;28;20115;-87
2023/10/11 01:39:11;;;;;;;9.60;5.05;;;;;;;;;;4967727;28;20139;-88
2023/10/11 01:41:42;;;;;;;7.82;4.93;;;;;;;;;;4966328;28;20055;-88
2023/10/11 01:44:10;;;;;;;12.68;6.15;;;;;;;;;;4967483;28;20500;-89
2023/10/11 01:46:39;;;;;;;13.63;5.68;;;;;;;;;;4970714;28;20408;-87
2023/10/11 01:49:09;;;;;;;16.08;6.03;;;;;;;;;;4971373;28;20412;-88
2023/10/11 01:51:40;;;;;;;10.23;5.80;;;;;;;;;;4955319;28;20051;-87
2023/10/11 01:54:09;;;;;;;14.55;5.32;;;;;;;;;;4966913;28;20048;-88
2023/10/11 01:56:38;;;;;;;12.85;6.07;;;;;;;;;;4969936;28;20142;-87
2023/10/11 01:59:06;;;;;;;12.50;5.85;;;;;;;;;;4970408;28;20085;-89
2023/10/11 02:01:41;;;;;;;11.13;6.07;;;;;;;;;;4947900;29;20051;-88
2023/10/11 02:04:16;;;;;;;11.10;6.03;;;;;;;;;;4969996;28;20142;-87
2023/10/11 02:06:44;;;;;;;11.77;5.95;;;;;;;;;;4965108;28;20048;-87
2023/10/11 02:09:11;;;;;;;13.98;6.07;;;;;;;;;;4967000;28;20051;-87
2023/10/11 02:11:42;;;;;;;15.18;5.65;;;;;;;;;;4953857;28;20572;-87
2023/10/11 02:14:13;;;;;;;10.77;5.55;;;;;;;;;;4969863;28;20066;-86
2023/10/11 02:16:40;;;;;;;11.10;5.75;;;;;;;;;;4966580;28;20086;-87
2023/10/11 02:19:09;;;;;;;14.00;5.70;;;;;;;;;;4966789;28;20118;-87
2023/10/11 02:21:36;;;;;;;18.30;6.30;;;;;;;;;;4954497;28;20062;-87
2023/10/11 02:24:05;;;;;;;20.75;6.28;;;;;;;;;;4955026;28;20138;-87
2023/10/11 02:26:34;;;;;;;23.33;6.95;;;;;;;;;;4954570;28;20134;-86
2023/10/11 02:29:06;;;;;;;17.27;6.63;;;;;;;;;;4969596;28;20467;-87
2023/10/11 02:31:36;;;;;;;21.75;6.50;;;;;;;;;;4969762;28;20055;-87
2023/10/11 02:34:12;;;;;;;15.82;5.90;;;;;;;;;;4966056;28;20103;-87
2023/10/11 02:36:44;;;;;;;18.08;6.82;;;;;;;;;;4969612;28;20098;-87
2023/10/11 02:39:20;;;;;;;15.57;6.25;;;;;;;;;;4954564;28;20051;-86
2023/10/11 02:41:55;;;;;;;16.80;5.90;;;;;;;;;;4954697;28;20412;-87
2023/10/11 02:44:23;;;;;;;17.85;6.45;;;;;;;;;;4969428;28;20048;-86
2023/10/11 02:46:51;;;;;;;15.48;6.18;;;;;;;;;;4969211;28;20102;-87
2023/10/11 02:49:18;;;;;;;15.80;6.22;;;;;;;;;;4969733;28;20059;-87
2023/10/11 02:51:56;;;;;;;12.65;7.03;;;;;;;;;;4969005;28;20540;-87
2023/10/11 02:54:24;;;;;;;14.82;5.65;;;;;;;;;;4954647;28;20048;-88
2023/10/11 02:56:52;;;;;;;11.57;5.82;;;;;;;;;;4963469;28;20055;-88
2023/10/11 02:59:23;;;;;;;12.77;5.55;;;;;;;;;;4973593;28;20546;-87
2023/10/11 03:02:00;;;;;;;8.88;5.45;;;;;;;;;;4972583;28;20113;-87
2023/10/11 03:04:29;;;;;;;9.07;5.45;;;;;;;;;;4972845;28;20090;-87
2023/10/11 03:06:56;;;;;;;8.13;5.15;;;;;;;;;;4972591;28;20113;-87
2023/10/11 03:09:27;;;;;;;13.13;5.57;;;;;;;;;;4973420;28;20467;-87
2023/10/11 03:12:05;;;;;;;8.82;5.03;;;;;;;;;;4972163;28;20090;-87
2023/10/11 03:14:41;;;;;;;12.95;5.65;;;;;;;;;;4973457;28;20419;-87
2023/10/11 03:17:14;;;;;;;12.88;5.55;;;;;;;;;;4973549;28;20054;-87
2023/10/11 03:19:45;;;;;;;14.98;6.53;;;;;;;;;;4969166;28;20106;-87
2023/10/11 03:22:19;;;;;;;13.07;5.35;;;;;;;;;;4969146;28;20131;-88
2023/10/11 03:24:53;;;;;;;15.90;5.60;;;;;;;;;;4975866;28;20145;-87
2023/10/11 03:27:23;;;;;;;15.15;5.00;;;;;;;;;;4975969;28;20047;-87
2023/10/11 03:29:56;;;;;;;11.25;4.65;;;;;;;;;;4977166;28;20541;-88
2023/10/11 03:32:26;;;;;;;10.35;5.82;;;;;;;;;;4975572;28;20055;-90
2023/10/11 03:34:55;;;;;;;14.60;4.88;;;;;;;;;;4976666;28;20138;-87
2023/10/11 03:37:27;;;;;;;14.13;5.30;;;;;;;;;;4975846;28;20130;-87
2023/10/11 03:39:58;;;;;;;10.60;4.85;;;;;;;;;;4975475;28;20066;-87
2023/10/11 03:45:11;;;;;;;11.77;5.57;;;;;;;;;;4976633;28;20521;-87
2023/10/11 03:47:39;;;;;;;14.45;5.03;;;;;;;;;;4976734;28;20123;-86
2023/10/11 03:50:11;;;;;;;11.23;5.82;;;;;;;;;;4972115;28;20055;-88
2023/10/11 03:52:40;;;;;;;7.95;4.75;;;;;;;;;;4975396;28;20138;-86
2023/10/11 03:55:10;;;;;;;20.33;5.82;;;;;;;;;;4974920;28;20498;-86
2023/10/11 03:57:41;;;;;;;14.95;6.75;;;;;;;;;;4974837;28;20050;-86
2023/10/11 04:03:04;;;;;;;13.10;6.03;;;;;;;;;;4976030;28;20055;-85
2023/10/11 04:05:35;;;;;;;17.33;5.93;;;;;;;;;;4975765;28;20082;-86
2023/10/11 04:08:11;;;;;;;16.67;5.88;;;;;;;;;;4976260;28;20138;-87
2023/10/11 04:10:39;;;;;;;13.13;5.82;;;;;;;;;;4959674;28;20395;-87
2023/10/11 04:13:09;;;;;;;14.35;5.38;;;;;;;;;;4975173;28;20054;-86
2023/10/11 04:15:40;;;;;;;11.77;5.40;;;;;;;;;;4975936;28;20073;-86
2023/10/11 04:18:32;;;;;;;10.50;4.78;;;;;;;;;;4975784;28;20496;-87
2023/10/11 04:23:39;;;;;;;17.48;6.03;;;;;;;;;;4968435;28;20466;-87
2023/10/11 04:26:23;;;;;;;16.08;5.70;;;;;;;;;;4975987;28;20113;-87
2023/10/11 04:28:52;;;;;;;16.80;6.00;;;;;;;;;;4974574;28;20496;-87
2023/10/11 04:31:31;;;;;;;19.45;6.60;;;;;;;;;;4974468;28;20051;-87
2023/10/11 04:34:01;;;;;;;16.60;5.90;;;;;;;;;;4975641;28;20079;-87
2023/10/11 04:36:29;;;;;;;18.80;5.95;;;;;;;;;;4974961;28;20110;-86
2023/10/11 04:39:15;;;;;;;16.98;6.15;;;;;;;;;;4975711;28;20047;-87
2023/10/11 04:41:50;;;;;;;11.07;4.93;;;;;;;;;;4975497;28;20085;-87
2023/10/11 04:44:18;;;;;;;13.00;5.47;;;;;;;;;;4972284;28;20051;-86
2023/10/11 04:46:57;;;;;;;11.18;5.30;;;;;;;;;;4974423;28;20451;-88
2023/10/11 04:49:25;;;;;;;19.27;4.85;;;;;;;;;;4975116;28;20043;-86
2023/10/11 04:51:56;;;;;;;20.00;5.85;;;;;;;;;;4973984;28;20141;-86
2023/10/11 04:54:36;;;;;;;14.80;5.38;;;;;;;;;;4975326;28;20514;-87
2023/10/11 04:57:07;;;;;;;10.68;5.18;;;;;;;;;;4975186;28;20051;-88
2023/10/11 05:02:08;;;;;;;11.70;5.15;;;;;;;;;;4970781;28;20113;-87
2023/10/11 05:04:42;;;;;;;12.40;5.05;;;;;;;;;;4971263;28;20518;-87
2023/10/11 05:07:09;;;;;;;10.55;4.82;;;;;;;;;;4972134;28;20084;-87
2023/10/11 05:09:38;;;;;;;12.48;4.57;;;;;;;;;;4974250;28;20051;-87
2023/10/11 05:14:56;;;;;;;11.95;4.75;;;;;;;;;;4958917;28;20070;-88
2023/10/11 05:25:16;;;;;;;13.25;6.32;;;;;;;;;;4974711;28;20109;-87
2023/10/11 05:27:56;;;;;;;23.92;12.05;;;;;;;;;;4973738;28;20054;-87
2023/10/11 05:30:32;;;;;;;24.33;13.43;;;;;;;;;;4973805;28;20492;-88
2023/10/11 05:36:09;;;;;;;15.75;6.30;;;;;;;;;;4974706;28;20138;-88
2023/10/11 05:52:25;;;;;;;12.43;8.25;;;;;;;;;;4974314;28;20109;-88
2023/10/11 05:54:53;;;;;;;18.05;7.82;;;;;;;;;;4973594;28;20066;-87
2023/10/11 05:57:23;;;;;;;12.70;6.60;;;;;;;;;;4973431;28;20415;-90
2023/10/11 05:59:51;;;;;;;11.68;5.70;;;;;;;;;;4974591;28;20073;-87
2023/10/11 06:02:19;;;;;;;13.20;5.47;;;;;;;;;;4972995;28;20042;-91
2023/10/11 06:04:47;;;;;;;13.80;6.30;;;;;;;;;;4973812;28;20146;-87
2023/10/11 06:07:20;;;;;;;10.40;5.57;;;;;;;;;;4973273;28;20073;-89
2023/10/11 06:09:52;;;;;;;;;;;;;;;;;;4974001;28;20084;-89
2023/10/11 06:12:23;;;;;;;13.65;6.00;;;;;;;;;;4973306;28;19928;-89
2023/10/11 06:14:54;;;;;;;14.73;5.57;;;;;;;;;;4974454;28;20051;-89
2023/10/11 06:17:48;;;;;;;19.27;5.50;;;;;;;;;;4974634;28;20118;-90
2023/10/11 06:20:26;;;;;;;22.00;6.43;;;;;;;;;;4973547;28;20082;-89
2023/10/11 06:22:55;;;;;;;11.55;5.50;;;;;;;;;;4970040;28;20055;-87
2023/10/11 06:28:31;;;;;;;19.15;7.25;;;;;;;;;;4953395;29;20059;-89
2023/10/11 06:31:01;;;;;;;11.85;6.28;;;;;;;;;;4953037;29;20055;-88
2023/10/11 06:33:34;;;;;;;15.65;6.80;;;;;;;;;;4956759;28;20050;-91
2023/10/11 06:36:06;;;;;;;20.58;7.43;;;;;;;;;;4973124;28;20058;-89
2023/10/11 06:38:41;;;;;;;13.68;6.43;;;;;;;;;;4973406;28;20416;-88
2023/10/11 06:43:55;;;;;;;21.55;6.15;;;;;;;;;;4974256;28;20053;-89
2023/10/11 06:46:22;;;;;;;15.10;5.72;;;;;;;;;;4973213;28;20051;-89
2023/10/11 06:48:49;;;;;;;17.92;5.63;;;;;;;;;;4970090;28;20047;-88
2023/10/11 06:51:17;;;;;;;12.23;5.50;;;;;;;;;;4970745;28;20050;-88
2023/10/11 06:53:46;;;;;;;12.88;5.63;;;;;;;;;;4969945;28;20142;-88
2023/10/11 06:56:16;;;;;;;14.93;5.70;;;;;;;;;;4971428;28;20058;-88
2023/10/11 06:58:44;;;;;;;13.45;5.38;;;;;;;;;;4975148;28;20062;-88
2023/10/11 07:01:14;;;;;;;13.15;5.32;;;;;;;;;;4977708;28;20051;-89
2023/10/11 07:03:41;;;;;;;12.50;5.70;;;;;;;;;;4976843;28;20075;-89
2023/10/11 07:06:13;;;;;;;14.85;5.75;;;;;;;;;;4976981;28;20046;-88
2023/10/11 07:08:49;;;;;;;13.98;6.05;;;;;;;;;;4976869;28;20150;-89
2023/10/11 07:11:40;;;;;;;16.30;4.97;;;;;;;;;;4976314;28;20038;-88
2023/10/11 07:14:14;;;;;;;12.63;5.32;;;;;;;;;;4977135;28;20058;-89
2023/10/11 07:16:44;;;;;;;12.18;5.35;;;;;;;;;;4970307;28;20055;-89
2023/10/11 07:19:11;;;;;;;11.32;5.18;;;;;;;;;;4976426;28;20047;-89
2023/10/11 07:27:08;;;;;;;14.52;5.57;;;;;;;;;;4980435;28;20059;-88
2023/10/11 07:29:37;;;;;;;13.73;5.03;;;;;;;;;;4985338;28;20121;-88
2023/10/11 07:32:09;;;;;;;43.92;7.07;;;;;;;;;;4978002;28;20055;-89
2023/10/11 07:34:38;;;;;;;15.63;5.57;;;;;;;;;;4970507;28;20057;-89
2023/10/11 07:37:06;;;;;;;13.32;5.10;;;;;;;;;;4977034;28;20484;-93
2023/10/11 07:39:37;;;;;;;14.73;5.22;;;;;;;;;;4977675;28;20082;-89
2023/10/11 07:42:08;;;;;;;13.82;5.55;;;;;;;;;;4978006;28;20051;-90
2023/10/11 07:44:49;;;;;;;13.50;5.40;;;;;;;;;;4977391;28;20514;-85
2023/10/11 07:47:18;;;;;;;12.88;4.88;;;;;;;;;;4977334;28;20062;-95
2023/10/11 07:49:49;;;;;;;15.02;5.38;;;;;;;;;;4977207;28;20411;-90
2023/10/11 07:52:19;;;;;;;11.38;4.70;;;;;;;;;;4975991;28;20061;-90
2023/10/11 07:54:51;;;;;;;15.30;5.13;;;;;;;;;;4975960;28;20057;-90
2023/10/11 07:57:21;;;;;;;12.45;5.20;;;;;;;;;;4975390;28;20059;-89
2023/10/11 07:59:51;;;;;;;14.77;5.28;;;;;;;;;;4972238;28;20058;-92
2023/10/11 08:02:29;;;;;;;11.18;5.35;;;;;;;;;;4973675;28;20496;-91
2023/10/11 08:04:58;;;;;;;15.07;5.00;;;;;;;;;;4974829;28;20078;-87
2023/10/11 08:07:26;;;;;;;11.88;4.78;;;;;;;;;;4975255;28;20058;-89
2023/10/11 08:09:55;;;;;;;10.85;4.80;;;;;;;;;;4965653;28;20054;-91
2023/10/11 08:12:23;;;;;;;16.25;5.05;;;;;;;;;;4975772;28;20498;-85
2023/10/11 08:14:56;;;;;;;16.42;5.35;;;;;;;;;;4971890;28;20051;-96
2023/10/11 08:17:29;;;;;;;12.48;5.53;;;;;;;;;;4974577;28;20047;-92
2023/10/11 08:19:57;;;;;;;15.52;4.93;;;;;;;;;;4975582;28;20074;-87
2023/10/11 08:22:25;;;;;;;13.68;5.00;;;;;;;;;;4976000;28;20058;-89
2023/10/11 08:24:56;;;;;;;13.07;5.57;;;;;;;;;;4971128;28;20082;-89
2023/10/11 08:32:42;;;;;;;16.63;5.65;;;;;;;;;;4967811;28;20444;-93
2023/10/11 08:35:26;;;;;;;14.45;5.00;;;;;;;;;;4974997;28;20058;-92
2023/10/11 08:37:54;;;;;;;14.35;4.80;;;;;;;;;;4971145;28;20484;-88
2023/10/11 08:40:34;;;;;;;13.20;5.20;;;;;;;;;;4973071;28;20138;-91
2023/10/11 08:43:02;;;;;;;10.52;5.03;;;;;;;;;;4974327;28;20435;-92
2023/10/11 08:45:33;;;;;;;11.75;5.07;;;;;;;;;;4975160;28;20059;-92
2023/10/11 08:48:01;;;;;;;20.40;5.32;;;;;;;;;;4974280;28;20129;-92
2023/10/11 08:50:32;;;;;;;14.75;5.75;;;;;;;;;;4974940;28;20141;-90
2023/10/11 08:53:01;;;;;;;9.75;4.90;;;;;;;;;;4974053;28;20050;-90
2023/10/11 08:55:29;;;;;;;13.30;5.53;;;;;;;;;;4974011;28;20117;-92
2023/10/11 08:57:56;;;;;;;16.20;5.25;;;;;;;;;;4935229;28;1075408;-91
2023/10/11 09:00:31;;;;;;;12.40;5.43;;;;;;;;;;4975035;28;20081;-90
2023/10/11 09:03:17;;;;;;;12.50;4.57;;;;;;;;;;4975948;28;20137;-89
2023/10/11 09:05:45;;;;;;;15.27;4.90;;;;;;;;;;4974660;28;20596;-92
2023/10/11 09:08:26;;;;;;;12.40;4.55;;;;;;;;;;4974989;28;20138;-91
2023/10/11 09:11:14;;;;;;;10.10;4.30;;;;;;;;;;4975226;28;20082;-89
2023/10/11 09:13:41;;;;;;;13.65;4.80;;;;;;;;;;4967841;28;20054;-90
2023/10/11 09:16:18;;;;;;;10.32;4.75;;;;;;;;;;4972585;28;20102;-87
2023/10/11 09:19:09;;;;;;;8.60;4.43;;;;;;;;;;4974908;28;20067;-91
2023/10/11 09:21:42;;;;;;;15.30;4.93;;;;;;;;;;4962992;28;20051;-94
2023/10/11 09:24:25;;;;;;;13.95;4.85;;;;;;;;;;4971974;28;20047;-90
2023/10/11 09:30:19;;;;;;;11.68;4.30;;;;;;;;;;4954316;28;20047;-93
2023/10/11 09:32:59;;;;;;;9.00;4.00;;;;;;;;;;4969303;28;20051;-90
2023/10/11 09:35:27;;;;;;;9.63;4.13;;;;;;;;;;4974587;28;20051;-96
2023/10/11 09:37:58;;;;;;;11.48;3.85;;;;;;;;;;4975159;28;20057;-89
2023/10/11 09:40:34;;;;;;;8.90;4.85;;;;;;;;;;4973979;28;20062;-93
2023/10/11 09:43:02;;;;;;;11.10;5.10;;;;;;;;;;4973862;28;20510;-89
2023/10/11 09:45:30;;;;;;;14.98;4.60;;;;;;;;;;4975785;28;20043;-92
2023/10/11 09:47:58;;;;;;;11.98;4.32;;;;;;;;;;4971276;28;20077;-95
2023/10/11 09:50:26;;;;;;;10.05;4.28;;;;;;;;;;4974777;28;20352;-92
2023/10/11 09:52:54;;;;;;;14.02;4.45;;;;;;;;;;4974979;28;20415;-91
2023/10/11 09:55:31;;;;;;;10.45;4.65;;;;;;;;;;4975016;28;20463;-89
2023/10/11 09:58:11;;;;;;;10.68;4.88;;;;;;;;;;4975947;28;20411;-90
2023/10/11 10:00:50;;;;;;;10.88;4.72;;;;;;;;;;4976969;28;20054;-95
2023/10/11 10:03:17;;;;;;;8.75;4.07;;;;;;;;;;4967786;28;20046;-92
2023/10/11 10:06:04;;;;;;;10.35;4.28;;;;;;;;;;4975975;28;20050;-95
2023/10/11 10:08:31;;;;;;;7.53;3.90;;;;;;;;;;5004120;23;20080;-91
2023/10/11 10:11:02;;;;;;;15.48;4.38;;;;;;;;;;4994551;28;20399;-89
2023/10/11 10:13:37;;;;;;;12.48;4.60;;;;;;;;;;5009587;28;20053;-90
2023/10/11 10:16:06;;;;;;;14.18;5.32;;;;;;;;;;4990109;28;20047;-89
2023/10/11 10:18:35;;;;;;;10.68;4.53;;;;;;;;;;4974713;28;20047;-88
2023/10/11 10:21:04;;;;;;;5.53;3.85;;;;;;;;;;4997363;28;20046;-89
2023/10/11 10:23:37;;;;;;;10.02;3.95;;;;;;;;;;4993345;28;20050;-88
2023/10/11 10:26:05;;;;;;;31.02;5.43;;;;;;;;;;4993785;28;20046;-88
2023/10/11 10:28:34;;;;;;;10.60;4.38;;;;;;;;;;4993720;28;20435;-84
2023/10/11 10:31:09;;;;;;;16.17;5.07;;;;;;;;;;4993909;28;20411;-90
2023/10/11 10:33:37;;;;;;;14.60;4.50;;;;;;;;;;4995367;28;20057;-89
2023/10/11 10:36:29;;;;;;;25.67;5.15;;;;;;;;;;4997727;28;20137;-88
2023/10/11 10:41:37;;;;;;;15.45;4.80;;;;;;;;;;4985612;28;20447;-89
2023/10/11 10:44:17;;;;;;;13.57;4.60;;;;;;;;;;4998925;28;20054;-89
2023/10/11 10:46:53;;;;;;;12.82;4.53;;;;;;;;;;4983640;28;20414;-90
2023/10/11 10:49:22;;;;;;;10.55;4.13;;;;;;;;;;4997433;28;20476;-87
2023/10/11 10:51:53;;;;;;;13.00;4.28;;;;;;;;;;4998231;28;20054;-88
2023/10/11 10:54:23;;;;;;;13.30;5.18;;;;;;;;;;4998227;28;20396;-87
2023/10/11 10:56:54;;;;;;;17.33;5.05;;;;;;;;;;4999393;28;20046;-89
2023/10/11 10:59:22;;;;;;;17.58;5.10;;;;;;;;;;4999922;28;20050;-87
2023/10/11 11:01:50;;;;;;;23.00;4.32;;;;;;;;;;4993803;28;20051;-90
2023/10/11 11:04:20;;;;;;;17.05;4.65;;;;;;;;;;4997158;28;20145;-87
2023/10/11 11:06:50;;;;;;;18.35;5.03;;;;;;;;;;5001901;28;20074;-87
2023/10/11 11:09:19;;;;;;;11.55;4.50;;;;;;;;;;5012960;28;20050;-90
2023/10/11 11:11:49;;;;;;;10.77;4.57;;;;;;;;;;5017738;28;20050;-86
2023/10/11 11:14:19;;;;;;;14.07;4.68;;;;;;;;;;4998456;28;20042;-87
2023/10/11 11:16:58;;;;;;;11.63;4.30;;;;;;;;;;4997685;28;20129;-89
2023/10/11 11:19:34;;;;;;;9.95;4.38;;;;;;;;;;4998207;28;20043;-86
2023/10/11 11:22:11;;;;;;;9.90;4.32;;;;;;;;;;4997657;28;20058;-88
2023/10/11 11:24:41;;;;;;;11.13;4.65;;;;;;;;;;4997768;28;20054;-87
2023/10/11 11:27:17;;;;;;;9.57;4.68;;;;;;;;;;4997560;28;20086;-88
2023/10/11 11:29:48;;;;;;;16.90;4.72;;;;;;;;;;4997174;28;20137;-86
2023/10/11 11:32:17;;;;;;;22.40;4.57;;;;;;;;;;4997698;28;20108;-87
2023/10/11 11:35:09;;;;;;;12.60;4.90;;;;;;;;;;4994208;28;20105;-88
2023/10/11 11:37:40;;;;;;;10.85;4.70;;;;;;;;;;5002049;28;20078;-89
2023/10/11 11:40:24;;;;;;;14.10;4.45;;;;;;;;;;5013944;28;20050;-81
2023/10/11 11:42:51;;;;;;;12.15;4.95;;;;;;;;;;5004666;28;20114;-88
2023/10/11 11:45:19;;;;;;;8.75;4.30;;;;;;;;;;5007553;28;20055;-87
2023/10/11 11:47:55;;;;;;;9.70;4.82;;;;;;;;;;5010930;28;20058;-86
2023/10/11 11:50:30;;;;;;;11.20;4.43;;;;;;;;;;5010024;28;20492;-86
2023/10/11 11:52:58;;;;;;;16.70;5.18;;;;;;;;;;5011436;28;20047;-90
2023/10/11 11:55:26;;;;;;;16.70;4.60;;;;;;;;;;5011938;28;20496;-84
2023/10/11 11:57:57;;;;;;;10.00;4.78;;;;;;;;;;4992288;28;20046;-87
2023/10/11 12:02:54;;;;;;;23.00;4.78;;;;;;;;;;4978742;28;20054;-86
2023/10/11 12:05:22;;;;;;;15.85;4.55;;;;;;;;;;4993106;28;20066;-85
2023/10/11 12:07:57;;;;;;;24.73;7.25;;;;;;;;;;4983894;28;20057;-86
2023/10/11 12:10:25;;;;;;;9.30;4.13;;;;;;;;;;4978516;28;20046;-84
2023/10/11 12:13:06;;;;;;;10.27;4.68;;;;;;;;;;4987642;28;20057;-86
2023/10/11 12:15:36;;;;;;;12.73;4.25;;;;;;;;;;4980615;28;20046;-85
2023/10/11 12:18:09;;;;;;;11.38;4.18;;;;;;;;;;4981478;28;20484;-87
2023/10/11 12:20:43;;;;;;;8.10;4.15;;;;;;;;;;4980708;28;20097;-85
2023/10/11 12:23:18;;;;;;;13.57;4.20;;;;;;;;;;4983054;28;20054;-85
2023/10/11 12:25:47;;;;;;;9.40;4.25;;;;;;;;;;4981209;28;20137;-85
2023/10/11 12:28:15;;;;;;;11.45;4.25;;;;;;;;;;4980521;28;20078;-84
2023/10/11 12:30:45;;;;;;;17.15;4.93;;;;;;;;;;4981880;28;20488;-84
2023/10/11 12:33:13;;;;;;;22.73;4.18;;;;;;;;;;4980835;28;20052;-86
2023/10/11 12:35:44;;;;;;;17.20;4.28;;;;;;;;;;4980815;28;20046;-84
2023/10/11 12:38:20;;;;;;;8.43;3.90;;;;;;;;;;4981915;28;20050;-81
2023/10/11 12:40:47;;;;;;;9.27;4.28;;;;;;;;;;4980278;28;20173;-87
2023/10/11 12:43:15;;;;;;;9.45;3.80;;;;;;;;;;4979645;28;20140;-87
2023/10/11 12:45:42;;;;;;;19.52;5.05;;;;;;;;;;4979993;28;20054;-85
2023/10/11 12:48:10;;;;;;;11.38;4.45;;;;;;;;;;4978888;28;20046;-84
2023/10/11 12:50:38;;;;;;;13.90;4.32;;;;;;;;;;4980471;28;20058;-81
2023/10/11 12:53:10;;;;;;;14.10;3.55;;;;;;;;;;4981003;28;20153;-87
2023/10/11 12:55:42;;;;;;;5.25;2.88;;;;;;;;;;4978369;28;20129;-85
2023/10/11 12:58:11;;;;;;;11.23;4.07;;;;;;;;;;4979218;28;20050;-87
2023/10/11 13:00:48;;;;;;;12.02;4.53;;;;;;;;;;4979086;28;20047;-89
2023/10/11 13:03:29;;;;;;;12.77;4.10;;;;;;;;;;4978712;28;20102;-88
2023/10/11 13:05:57;;;;;;;11.95;3.85;;;;;;;;;;4978500;28;20050;-90
2023/10/11 13:08:28;;;;;;;18.52;4.53;;;;;;;;;;4986941;28;20563;-86
2023/10/11 13:11:00;;;;;;;8.50;3.95;;;;;;;;;;4995313;28;20046;-87
2023/10/11 13:13:28;;;;;;;5.57;3.60;;;;;;;;;;4994617;28;20043;-87
2023/10/11 13:15:58;;;;;;;13.27;3.95;;;;;;;;;;4991148;28;20050;-83
2023/10/11 13:18:32;;;;;;;10.15;4.05;;;;;;;;;;5001720;28;20047;-89
2023/10/11 13:21:04;;;;;;;12.45;3.90;;;;;;;;;;4994392;28;20042;-82
2023/10/11 13:23:33;;;;;;;11.55;3.70;;;;;;;;;;4995439;28;20054;-87
2023/10/11 13:26:00;;;;;;;12.95;3.83;;;;;;;;;;4995155;28;20054;-85
2023/10/11 13:28:28;;;;;;;10.48;3.72;;;;;;;;;;4995343;28;20054;-85
2023/10/11 13:31:01;;;;;;;14.45;3.75;;;;;;;;;;4993633;28;20419;-86
2023/10/11 13:33:33;;;;;;;9.60;3.30;;;;;;;;;;4995626;28;20488;-85
2023/10/11 13:36:01;;;;;;;15.95;3.60;;;;;;;;;;4995861;28;20068;-88
2023/10/11 13:38:30;;;;;;;24.67;4.10;;;;;;;;;;4991911;28;20099;-86
2023/10/11 13:41:00;;;;;;;7.28;2.97;;;;;;;;;;4992646;28;20051;-86
2023/10/11 13:43:27;;;;;;;22.63;4.43;;;;;;;;;;5011197;28;20047;-86
2023/10/11 13:46:01;;;;;;;10.70;3.80;;;;;;;;;;4997668;28;20493;-87
2023/10/11 13:48:40;;;;;;;9.13;3.20;;;;;;;;;;4998901;28;20080;-86
2023/10/11 13:51:16;;;;;;;11.93;3.40;;;;;;;;;;5017094;28;20046;-86
2023/10/11 13:53:46;;;;;;;6.13;3.10;;;;;;;;;;5004064;28;20138;-88
2023/10/11 13:56:20;;;;;;;10.75;3.60;;;;;;;;;;4995463;28;20050;-82
2023/10/11 13:58:49;;;;;;;12.13;3.80;;;;;;;;;;4995411;28;20054;-86
2023/10/11 14:04:14;;;;;;;13.35;3.92;;;;;;;;;;4982523;28;20050;-87
2023/10/11 14:06:42;;;;;;;12.80;3.28;;;;;;;;;;4993192;28;20444;-87
2023/10/11 14:09:18;;;;;;;9.38;3.00;;;;;;;;;;4993558;28;20073;-86
2023/10/11 14:11:48;;;;;;;10.55;3.45;;;;;;;;;;4992852;28;20137;-87
2023/10/11 14:14:22;;;;;;;9.68;3.38;;;;;;;;;;4993103;28;20058;-85
2023/10/11 14:16:50;;;;;;;11.33;3.47;;;;;;;;;;4994242;28;20116;-88
2023/10/11 14:19:18;;;;;;;8.63;2.92;;;;;;;;;;4992904;28;20073;-86
2023/10/11 14:21:48;;;;;;;7.32;3.00;;;;;;;;;;4992711;28;20046;-86
2023/10/11 14:24:16;;;;;;;10.88;4.03;;;;;;;;;;4990419;28;20110;-85
2023/10/11 14:26:44;;;;;;;12.43;3.30;;;;;;;;;;4994484;28;20488;-87
2023/10/11 14:29:12;;;;;;;12.13;3.17;;;;;;;;;;4993618;28;20403;-85
2023/10/11 14:31:42;;;;;;;13.43;3.50;;;;;;;;;;4994377;28;20244;-85
2023/10/11 14:34:09;;;;;;;15.73;3.85;;;;;;;;;;4993113;28;20050;-88
2023/10/11 14:36:36;;;;;;;9.82;3.08;;;;;;;;;;4992446;28;20054;-87
2023/10/11 14:39:17;;;;;;;6.68;3.60;;;;;;;;;;4990776;28;20054;-86
2023/10/11 14:41:46;;;;;;;5.47;2.80;;;;;;;;;;4995069;28;20066;-82
2023/10/11 14:44:14;;;;;;;8.98;3.00;;;;;;;;;;4994158;28;20058;-87
2023/10/11 14:46:44;;;;;;;15.10;3.72;;;;;;;;;;4992856;28;20050;-87
2023/10/11 14:49:12;;;;;;;17.95;4.32;;;;;;;;;;4994384;28;20412;-85
2023/10/11 14:51:41;;;;;;;15.60;4.22;;;;;;;;;;4993027;28;20058;-87
2023/10/11 14:54:12;;;;;;;8.68;3.13;;;;;;;;;;4984835;28;20047;-89
2023/10/11 14:56:40;;;;;;;11.45;3.13;;;;;;;;;;4992299;28;20054;-87
2023/10/11 14:59:12;;;;;;;7.93;3.35;;;;;;;;;;4993825;28;20069;-86
2023/10/11 15:01:39;;;;;;;6.05;3.20;;;;;;;;;;4983607;28;20057;-87
2023/10/11 15:04:10;;;;;;;6.93;3.10;;;;;;;;;;5002102;28;20076;-83
2023/10/11 15:06:45;;;;;;;6.35;3.00;;;;;;;;;;4998951;28;20121;-87
2023/10/11 15:09:15;;;;;;;7.45;3.40;;;;;;;;;;5008193;28;20058;-87
2023/10/11 15:11:45;;;;;;;8.38;3.05;;;;;;;;;;4993242;28;20062;-86
2023/10/11 15:14:14;;;;;;;8.02;3.00;;;;;;;;;;4993333;28;20054;-89
2023/10/11 15:16:46;;;;;;;21.63;4.30;;;;;;;;;;4991899;28;20047;-88
2023/10/11 15:19:23;;;;;;;12.90;3.80;;;;;;;;;;4993908;28;20451;-87
2023/10/11 15:21:52;;;;;;;10.63;3.22;;;;;;;;;;4997771;28;20046;-88
2023/10/11 15:24:23;;;;;;;9.02;3.00;;;;;;;;;;4992631;28;20497;-88
2023/10/11 15:26:51;;;;;;;6.03;2.88;;;;;;;;;;4999739;28;20058;-87
2023/10/11 15:29:22;;;;;;;8.10;3.55;;;;;;;;;;4993466;28;20058;-88
2023/10/11 15:31:53;;;;;;;9.90;3.33;;;;;;;;;;4995819;28;20070;-87
2023/10/11 15:34:23;;;;;;;12.35;3.53;;;;;;;;;;4987685;28;20050;-88
2023/10/11 15:36:51;;;;;;;13.77;6.32;;;;;;;;;;4992274;28;20062;-88
2023/10/11 15:39:22;;;;;;;10.27;3.50;;;;;;;;;;5009778;28;20498;-87
2023/10/11 15:41:50;;;;;;;11.70;3.45;;;;;;;;;;4983275;28;20051;-87
2023/10/11 15:44:19;;;;;;;11.95;3.33;;;;;;;;;;4990918;28;20496;-87
2023/10/11 15:46:46;;;;;;;13.73;3.85;;;;;;;;;;4995304;28;20081;-86
2023/10/11 15:49:14;;;;;;;9.15;3.28;;;;;;;;;;4995781;28;20475;-84
2023/10/11 15:51:44;;;;;;;13.68;3.42;;;;;;;;;;4995890;28;20061;-88
2023/10/11 15:54:11;;;;;;;8.73;3.17;;;;;;;;;;4995637;28;20061;-85
2023/10/11 15:56:39;;;;;;;10.80;3.38;;;;;;;;;;4997021;28;20130;-86
2023/10/11 15:59:06;;;;;;;10.50;3.30;;;;;;;;;;4992854;28;20659;-85
2023/10/11 16:01:39;;;;;;;10.95;3.53;;;;;;;;;;5000074;28;20061;-87
2023/10/11 16:04:06;;;;;;;9.75;3.05;;;;;;;;;;5012921;28;20054;-86
2023/10/11 16:06:35;;;;;;;13.35;3.67;;;;;;;;;;4988721;28;20046;-85